METAR (acronimo di METeorological Air Report) è un messaggio meteo emesso nella maggior parte dei casi in ambito aeroportuale

SVMI - Caracas Simón Bolívar International Airport, Venezuela
Ultimo Aggiornamento: Mercoledì 25 Novembre 2020 20:02 CET
Sereno
Sereno
 Wind from Est
Vento: Est 26 km/h
Barometro: 1011 hPa
Nuvole: Sereno
2020/11/25 19:02 SVMI 251902Z AUTO 08014KT NCD ///// Q1011
SKBO - Bogotá El Dorado International Airport, Colombia
Ultimo Aggiornamento: Mercoledì 25 Novembre 2020 21:00 CET
Acquazzoni nelle vicinanze, Parzialmente Nuvoloso
Acquazzoni nelle vicinanze, Parzialmente Nuvoloso
 Wind from Ovest-Sud-Ovest
Vento: Ovest-Sud-Ovest 17 km/h
Temperatura: 16°C
Punto di Rugiada: 11°C
Umidità: 72%
Barometro: 1024.4 hPa
Condizioni: Acquazzoni nelle vicinanze
Nuvole: Parzialmente Nuvoloso
Visibilità: 10 km
Nuvole nel Dettaglio: Parzialmente Nuvoloso 610 m
Parzialmente Nuvoloso 2134 m
2020/11/25 20:00 SKBO 252000Z 25009KT 9999 VCSH SCT020TCU SCT070 16/11 A3025 NOSIG RMK TCU/VCSH/S/N
TFFF - Fort-de-France Martinique Aimé Césaire International Airport, Martinique
Ultimo Aggiornamento: Mercoledì 25 Novembre 2020 21:00 CET
Sereno
Sereno
 Wind from Est-Sud-Est
Vento: Est-Sud-Est 13 km/h
Temperatura: 28°C
Heat Index: 30°C
Punto di Rugiada: 22°C
Umidità: 70%
Barometro: 1012 hPa
Condizioni: Sereno
Visibilità: superiore a 10 km
2020/11/25 20:00 TFFF 252000Z AUTO 11007KT CAVOK 28/22 Q1012 TEMPO 4000 SHRA BKN020TCU
 
SEQM - Quito Mariscal Sucre International Airport, Ecuador
Ultimo Aggiornamento: Mercoledì 25 Novembre 2020 21:00 CET
Parzialmente Nuvoloso
Parzialmente Nuvoloso
 Wind from Nord-Nord-Est
Vento: Nord-Nord-Est 28 km/h
Temperatura: 19°C
Punto di Rugiada: 12°C
Umidità: 64%
Barometro: 1022 hPa
Nuvole: Parzialmente Nuvoloso
Visibilità: 10 km
Nuvole nel Dettaglio: Parzialmente Nuvoloso 914 m
Parzialmente Nuvoloso 3048 m
2020/11/25 20:00 SEQM 252000Z 02015KT 9999 SCT030 SCT100 19/12 Q1022 NOSIG RMK A3020
SEGS - Baltra Island, Galápagos, Ecuador
Ultimo Aggiornamento: Mercoledì 25 Novembre 2020 21:00 CET
Qualche Nuvola
Qualche Nuvola
 Wind from Sud
Vento: Sud 15 km/h
Temperatura: 28°C
Heat Index: 29°C
Punto di Rugiada: 20°C
Umidità: 62%
Barometro: 1014 hPa
Nuvole: Qualche Nuvola
Visibilità: 10 km
Nuvole nel Dettaglio: Qualche Nuvola 701 m
2020/11/25 20:00 SEGS 252000Z 19008KT 9999 FEW023 28/20 Q1014 A2995
SPJC - Lima Jorge Chvez International Airport, Peru
Ultimo Aggiornamento: Mercoledì 25 Novembre 2020 21:00 CET
Parzialmente Nuvoloso
Parzialmente Nuvoloso
 Wind from Ovest
Vento: Ovest 19 km/h
Temperatura: 20°C
Punto di Rugiada: 15°C
Umidità: 73%
Barometro: 1012 hPa
Nuvole: Parzialmente Nuvoloso
Visibilità: 10 km
Nuvole nel Dettaglio: Parzialmente Nuvoloso 914 m
2020/11/25 20:00 SPJC 252000Z 26010KT 240V310 9999 SCT030 20/15 Q1012 NOSIG RMK PP000
 
SLLP - La Paz El Alto International Airport, Bolivia
Ultimo Aggiornamento: Mercoledì 25 Novembre 2020 20:00 CET
Prevalentemente Nuvoloso
Prevalentemente Nuvoloso
 Wind from Est-Sud-Est
Vento: Est-Sud-Est 19 km/h
Temperatura: 18°C
Punto di Rugiada: 1°C
Umidità: 32%
Barometro: 1036 hPa
Nuvole: Prevalentemente Nuvoloso
Visibilità: 10 km
Nuvole nel Dettaglio: Qualche Nuvola 701 m
Qualche Nuvola 762 m
Parzialmente Nuvoloso 2134 m
Prevalentemente Nuvoloso 6096 m
2020/11/25 19:00 SLLP 251900Z 11010KT 080V170 9999 FEW023 FEW025CB SCT070 BKN200 18/01 Q1036
SBBR - Brasilia International Airport, Brazil
Ultimo Aggiornamento: Mercoledì 25 Novembre 2020 21:00 CET
Pioggia Leggera, Temporale nelle vicinanze, Prevalentemente Nuvoloso
Pioggia Leggera, Temporale nelle vicinanze, Prevalentemente Nuvoloso
 Wind from Est-Sud-Est
Vento: Est-Sud-Est 15 km/h
Temperatura: 20°C
Punto di Rugiada: 18°C
Umidità: 88%
Barometro: 1019 hPa
Condizioni: Pioggia Leggera, Temporale nelle vicinanze
Nuvole: Prevalentemente Nuvoloso
Visibilità: 9 km
Nuvole nel Dettaglio: Parzialmente Nuvoloso 914 m
Qualche Nuvola 1219 m
Prevalentemente Nuvoloso 3048 m
2020/11/25 20:00 SBBR 252000Z 11008KT 9000 -RA VCTS SCT030 FEW040CB BKN100 20/18 Q1019
SCEL - Santiago Comodoro Arturo Merino Benitez International Airport, Chile
Ultimo Aggiornamento: Mercoledì 25 Novembre 2020 21:00 CET
Sereno
Sereno
 Wind from Sud
Vento: Sud 20 km/h
Temperatura: 28°C
Punto di Rugiada: 3°C
Umidità: 20%
Barometro: 1015 hPa
Condizioni: Sereno
Visibilità: superiore a 10 km
2020/11/25 20:00 SCEL 252000Z 17011KT 130V200 CAVOK 28/03 Q1015 NOSIG
 
SCCI - Punta Arenas Presidente Carlos Ibañez del Campo International Airport, Chile
Ultimo Aggiornamento: Mercoledì 25 Novembre 2020 21:00 CET
Prevalentemente Nuvoloso
Prevalentemente Nuvoloso
 Wind from Sud-Ovest
Vento: Sud-Ovest 37 km/h
Temperatura: 11°C
Punto di Rugiada: 2°C
Umidità: 54%
Barometro: 995 hPa
Nuvole: Prevalentemente Nuvoloso
Visibilità: 10 km
Nuvole nel Dettaglio: Parzialmente Nuvoloso 914 m
Prevalentemente Nuvoloso 1372 m
2020/11/25 20:00 SCCI 252000Z 23020KT 9999 SCT030 BKN045 11/02 Q0995 NOSIG
SCIP - Easter Island Mataveri International Airport, Chile
Ultimo Aggiornamento: Mercoledì 25 Novembre 2020 21:00 CET
Parzialmente Nuvoloso
Parzialmente Nuvoloso
 Wind from Est-Nord-Est
Vento: Est-Nord-Est 17 km/h, Raffica: 35 km/h
Temperatura: 26°C
Punto di Rugiada: 16°C
Umidità: 54%
Barometro: 1027 hPa
Nuvole: Parzialmente Nuvoloso
Visibilità: 10 km
Nuvole nel Dettaglio: Parzialmente Nuvoloso 792 m
2020/11/25 20:00 SCIP 252000Z 06009G19KT 330V140 9999 SCT026 26/16 Q1027 NOSIG
SAEZ - Buenos Aires Ministro Pistarini International Airport, Argentina
Ultimo Aggiornamento: Mercoledì 25 Novembre 2020 21:00 CET
Parzialmente Nuvoloso
Parzialmente Nuvoloso
 Wind from Ovest-Sud-Ovest
Vento: Ovest-Sud-Ovest 13 km/h
Temperatura: 27°C
Heat Index: 29°C
Punto di Rugiada: 20°C
Umidità: 66%
Barometro: 1008 hPa
Nuvole: Parzialmente Nuvoloso
Visibilità: 10 km
Nuvole nel Dettaglio: Qualche Nuvola 853 m
Parzialmente Nuvoloso 1097 m
2020/11/25 20:00 SAEZ 252000Z 25007KT 9999 FEW028 SCT036 27/20 Q1008 NOSIG
 
SAZM - Mar del Plata Astor Piazzolla International Airport, Argentina
Ultimo Aggiornamento: Mercoledì 25 Novembre 2020 21:00 CET
Qualche Nuvola
Qualche Nuvola
 Wind from Est-Sud-Est
Vento: Est-Sud-Est 9 km/h
Temperatura: 23°C
Punto di Rugiada: 19°C
Umidità: 78%
Barometro: 1005 hPa
Nuvole: Qualche Nuvola
Visibilità: 10 km
Nuvole nel Dettaglio: Qualche Nuvola 1372 m
2020/11/25 20:00 SAZM 252000Z 11005KT 9999 FEW045 23/19 Q1005
SAWH - Ushuaia-Malvinas Argentinas International Airport, Argentina
Ultimo Aggiornamento: Mercoledì 25 Novembre 2020 20:29 CET
Pioggia Leggera, Prevalentemente Nuvoloso
Pioggia Leggera, Prevalentemente Nuvoloso
 Wind from Sud
Vento: Sud 35 km/h
Temperatura: 8°C
Wind Chill: 3°C
Punto di Rugiada: 4°C
Umidità: 76%
Barometro: 992 hPa
Condizioni: Pioggia Leggera
Nuvole: Prevalentemente Nuvoloso
Visibilità: 10 km
Nuvole nel Dettaglio: Qualche Nuvola 762 m
Prevalentemente Nuvoloso 1067 m
2020/11/25 19:29 SAWH 251929Z 18019KT 9999 -RA FEW025 BKN035 08/04 Q0992
EGYP - Stanley RAF Mount Pleasant, Falkland Islands
Ultimo Aggiornamento: Mercoledì 25 Novembre 2020 20:50 CET
Acquazzoni nelle vicinanze, Prevalentemente Nuvoloso
Acquazzoni nelle vicinanze, Prevalentemente Nuvoloso
 Wind from Nord
Vento: Nord 39 km/h
Temperatura: 13°C
Punto di Rugiada: 8°C
Umidità: 72%
Barometro: 994 hPa
Condizioni: Acquazzoni nelle vicinanze
Nuvole: Prevalentemente Nuvoloso
Visibilità: 10 km
Nuvole nel Dettaglio: Qualche Nuvola 610 m
Prevalentemente Nuvoloso 6706 m
2020/11/25 19:50 EGYP 251950Z 35021KT 9999 VCSH FEW020 BKN220 13/08 Q0994